createdAt,value
2023-05-10T00:00:17.920Z,247.59
2023-05-10T00:01:17.737Z,248.93
2023-05-10T00:02:17.867Z,247.66
2023-05-10T00:03:17.911Z,247.76
2023-05-10T00:04:17.954Z,247.74
2023-05-10T00:05:17.936Z,248.14
2023-05-10T00:06:18.007Z,246.63
2023-05-10T00:07:18.001Z,246.90
2023-05-10T00:08:18.100Z,248.04
2023-05-10T00:09:18.171Z,247.62
2023-05-10T00:10:18.339Z,247.62
2023-05-10T00:11:18.233Z,248.80
2023-05-10T00:12:18.294Z,247.15
2023-05-10T00:13:18.394Z,249.49
2023-05-10T00:14:18.401Z,247.08
2023-05-10T00:15:18.441Z,249.12
2023-05-10T00:16:18.512Z,247.82
2023-05-10T00:17:18.592Z,249.25
2023-05-10T00:18:18.597Z,249.20
2023-05-10T00:19:18.638Z,249.32
2023-05-10T00:20:18.927Z,248.65
2023-05-10T00:21:18.755Z,247.97
2023-05-10T00:22:18.862Z,248.65
2023-05-10T00:23:18.924Z,248.19
2023-05-10T00:24:18.939Z,248.37
2023-05-10T00:25:19.005Z,248.39
2023-05-10T00:26:19.037Z,247.60
2023-05-10T00:27:19.110Z,248.38
2023-05-10T00:28:19.149Z,247.65
2023-05-10T00:29:19.216Z,247.61
2023-05-10T00:30:19.450Z,248.27
2023-05-10T00:31:19.398Z,248.11
2023-05-10T00:32:19.450Z,248.54
2023-05-10T00:33:19.457Z,248.34
2023-05-10T00:34:19.521Z,248.72
2023-05-10T00:35:19.574Z,248.46
2023-05-10T00:36:19.619Z,248.86
2023-05-10T00:37:19.702Z,248.37
2023-05-10T00:38:19.744Z,249.56
2023-05-10T00:39:19.771Z,248.51
2023-05-10T00:40:19.863Z,248.58
2023-05-10T00:41:19.889Z,248.45
2023-05-10T00:42:19.922Z,248.16
2023-05-10T00:43:20.007Z,249.74
2023-05-10T00:44:20.040Z,247.77
2023-05-10T00:45:20.134Z,246.84
2023-05-10T00:46:20.238Z,247.67
2023-05-10T00:47:20.251Z,248.70
2023-05-10T00:48:20.287Z,248.04
2023-05-10T00:49:20.363Z,247.70
2023-05-10T00:50:20.411Z,247.40
2023-05-10T00:51:20.476Z,247.46
2023-05-10T00:52:20.515Z,246.93
2023-05-10T00:53:20.564Z,248.15
2023-05-10T00:54:20.628Z,247.42
2023-05-10T00:55:20.697Z,248.27
2023-05-10T00:56:20.750Z,248.46
2023-05-10T00:57:20.807Z,247.34
2023-05-10T00:58:20.855Z,248.01
2023-05-10T00:59:20.924Z,248.27
2023-05-10T01:00:21.011Z,247.80
2023-05-10T01:01:21.091Z,248.19
2023-05-10T01:02:21.193Z,248.18
2023-05-10T01:03:21.256Z,249.46
2023-05-10T01:04:21.208Z,248.07
2023-05-10T01:05:21.384Z,247.94
2023-05-10T01:06:21.366Z,248.99
2023-05-10T01:07:21.436Z,248.17
2023-05-10T01:08:21.483Z,246.36
2023-05-10T01:09:21.524Z,249.40
2023-05-10T01:10:21.604Z,248.20
2023-05-10T01:11:21.668Z,249.62
2023-05-10T01:12:21.788Z,247.75
2023-05-10T01:13:21.813Z,249.31
2023-05-10T01:14:21.893Z,247.45
2023-05-10T01:15:21.958Z,248.53
2023-05-10T01:16:22.064Z,247.91
2023-05-10T01:17:22.085Z,247.72
2023-05-10T01:18:22.131Z,249.45
2023-05-10T01:19:22.171Z,247.86
2023-05-10T01:20:22.247Z,247.88
2023-05-10T01:21:22.246Z,248.75
2023-05-10T01:22:22.349Z,248.47
2023-05-10T01:23:22.430Z,248.65
2023-05-10T01:24:22.470Z,248.67
2023-05-10T01:25:22.532Z,247.92
2023-05-10T01:26:22.598Z,248.13
2023-05-10T01:27:22.640Z,247.70
2023-05-10T01:28:22.726Z,249.19
2023-05-10T01:29:22.770Z,249.05
2023-05-10T01:30:22.867Z,248.77
2023-05-10T01:31:22.941Z,246.96
2023-05-10T01:32:22.987Z,247.37
2023-05-10T01:33:23.026Z,248.05
2023-05-10T01:34:23.065Z,248.00
2023-05-10T01:35:23.140Z,248.59
2023-05-10T01:36:23.161Z,247.19
2023-05-10T01:37:23.254Z,248.47
2023-05-10T01:38:23.296Z,246.80
2023-05-10T01:39:23.374Z,247.81
2023-05-10T01:40:23.444Z,247.15
2023-05-10T01:41:23.474Z,247.47
2023-05-10T01:42:23.512Z,248.68
2023-05-10T01:43:23.626Z,248.44
2023-05-10T01:44:23.682Z,248.61
2023-05-10T01:45:23.720Z,248.50
2023-05-10T01:46:23.922Z,249.04
2023-05-10T01:47:23.809Z,249.15
2023-05-10T01:48:23.894Z,247.60
2023-05-10T01:49:23.969Z,248.81
2023-05-10T01:50:24.013Z,248.38
2023-05-10T01:51:24.090Z,249.68
2023-05-10T01:52:24.139Z,247.19
2023-05-10T01:53:24.199Z,248.52
2023-05-10T01:54:24.309Z,248.06
2023-05-10T01:55:24.361Z,247.13
2023-05-10T01:56:24.421Z,247.70
2023-05-10T01:57:24.430Z,246.60
2023-05-10T01:58:24.520Z,248.40
2023-05-10T01:59:24.554Z,248.16
2023-05-10T02:00:24.657Z,249.16
2023-05-10T02:01:24.684Z,247.51
2023-05-10T02:02:24.797Z,248.36
2023-05-10T02:03:24.847Z,247.75
2023-05-10T02:04:24.896Z,247.62
2023-05-10T02:05:24.946Z,248.07
2023-05-10T02:06:24.984Z,247.71
2023-05-10T02:07:25.024Z,249.43
2023-05-10T02:08:25.138Z,246.51
2023-05-10T02:09:25.184Z,247.67
2023-05-10T02:10:25.209Z,247.72
2023-05-10T02:11:25.295Z,246.66
2023-05-10T02:12:25.372Z,248.68
2023-05-10T02:13:25.548Z,249.00
2023-05-10T02:14:25.502Z,247.39
2023-05-10T02:15:25.538Z,246.78
2023-05-10T02:16:25.620Z,248.67
2023-05-10T02:17:25.682Z,247.35
2023-05-10T02:18:25.705Z,247.72
2023-05-10T02:19:25.746Z,249.25
2023-05-10T02:20:25.839Z,247.84
2023-05-10T02:21:25.854Z,247.87
2023-05-10T02:22:25.878Z,248.76
2023-05-10T02:23:25.918Z,249.34
2023-05-10T02:24:25.952Z,247.16
2023-05-10T02:25:26.013Z,247.44
2023-05-10T02:26:26.076Z,248.66
2023-05-10T02:27:26.122Z,246.91
2023-05-10T02:28:26.175Z,247.66
2023-05-10T02:29:26.223Z,247.98
2023-05-10T02:30:26.244Z,246.67
2023-05-10T02:31:26.334Z,249.16
2023-05-10T02:32:26.388Z,247.17
2023-05-10T02:33:26.428Z,248.10
2023-05-10T02:34:26.492Z,248.15
2023-05-10T02:35:26.511Z,247.74
2023-05-10T02:36:26.579Z,246.31
2023-05-10T02:37:26.647Z,247.64
2023-05-10T02:38:26.734Z,246.20
2023-05-10T02:39:26.705Z,246.01
2023-05-10T02:40:28.678Z,247.48
2023-05-10T02:41:26.797Z,247.67
2023-05-10T02:42:26.877Z,247.75
2023-05-10T02:43:26.891Z,247.60
2023-05-10T02:44:26.908Z,246.82
2023-05-10T02:45:26.970Z,246.67
2023-05-10T02:46:27.008Z,247.76
2023-05-10T02:47:27.034Z,247.50
2023-05-10T02:48:27.081Z,246.53
2023-05-10T02:49:27.094Z,248.82
2023-05-10T02:50:27.148Z,247.93
2023-05-10T02:51:27.192Z,247.51
2023-05-10T02:52:27.211Z,246.00
2023-05-10T02:53:27.239Z,247.06
2023-05-10T02:54:27.280Z,248.36
2023-05-10T02:55:27.327Z,248.61
2023-05-10T02:56:27.378Z,248.17
2023-05-10T02:57:27.461Z,246.24
2023-05-10T02:58:27.468Z,247.38
2023-05-10T02:59:27.520Z,246.55
2023-05-10T03:00:27.526Z,247.89
2023-05-10T03:01:27.671Z,246.57
2023-05-10T03:02:27.682Z,248.00
2023-05-10T03:03:27.720Z,246.27
2023-05-10T03:04:27.783Z,246.79
2023-05-10T03:05:27.779Z,245.97
2023-05-10T03:06:27.819Z,247.94
2023-05-10T03:07:27.835Z,246.55
2023-05-10T03:08:27.870Z,247.86
2023-05-10T03:09:27.869Z,248.38
2023-05-10T03:10:27.948Z,247.29
2023-05-10T03:11:27.909Z,249.01
2023-05-10T03:12:27.966Z,248.04
2023-05-10T03:13:28.110Z,245.08
2023-05-10T03:14:28.172Z,247.04
2023-05-10T03:15:28.048Z,248.17
2023-05-10T03:16:28.258Z,247.89
2023-05-10T03:17:28.127Z,246.61
2023-05-10T03:18:28.165Z,247.36
2023-05-10T03:19:28.145Z,246.85
2023-05-10T03:20:28.197Z,247.00
2023-05-10T03:21:28.307Z,246.13
2023-05-10T03:22:28.274Z,247.00
2023-05-10T03:23:28.311Z,246.07
2023-05-10T03:24:28.359Z,248.18
2023-05-10T03:25:28.390Z,247.28
2023-05-10T03:26:28.428Z,248.80
2023-05-10T03:27:28.468Z,245.71
2023-05-10T03:28:28.498Z,247.54
2023-05-10T03:29:28.543Z,246.95
2023-05-10T03:30:28.567Z,246.69
2023-05-10T03:31:28.646Z,248.01
2023-05-10T03:32:28.598Z,247.57
2023-05-10T03:33:28.622Z,246.74
2023-05-10T03:34:28.688Z,247.04
2023-05-10T03:35:28.691Z,247.41
2023-05-10T03:36:28.741Z,247.62
2023-05-10T03:37:28.755Z,248.80
2023-05-10T03:38:30.373Z,248.31
2023-05-10T03:39:28.800Z,245.97
2023-05-10T03:40:28.823Z,247.50
2023-05-10T03:41:28.831Z,249.09
2023-05-10T03:42:28.830Z,248.94
2023-05-10T03:43:28.860Z,247.57
2023-05-10T03:44:28.870Z,250.00
2023-05-10T03:45:28.920Z,247.67
2023-05-10T03:46:29.047Z,248.30
2023-05-10T03:47:28.912Z,247.18
2023-05-10T03:48:28.922Z,247.29
2023-05-10T03:49:28.972Z,248.49
2023-05-10T03:50:28.974Z,247.23
2023-05-10T03:51:28.974Z,249.08
2023-05-10T03:52:29.010Z,247.56
2023-05-10T03:53:29.012Z,246.99
2023-05-10T03:54:29.054Z,248.99
2023-05-10T03:55:29.048Z,248.28
2023-05-10T03:56:29.072Z,249.47
2023-05-10T03:57:29.092Z,247.57
2023-05-10T03:58:29.152Z,248.79
2023-05-10T03:59:29.175Z,247.93
2023-05-10T04:00:29.179Z,248.76
2023-05-10T04:01:29.238Z,246.50
2023-05-10T04:02:29.324Z,248.82
2023-05-10T04:03:29.389Z,246.11
2023-05-10T04:04:29.303Z,242.95
2023-05-10T04:05:29.360Z,238.23
2023-05-10T04:06:29.493Z,229.57
2023-05-10T04:07:29.319Z,223.23
2023-05-10T04:08:29.324Z,218.42
2023-05-10T04:09:29.329Z,214.64
2023-05-10T04:10:29.344Z,206.63
2023-05-10T04:11:29.323Z,207.64
2023-05-10T04:12:29.302Z,202.77
2023-05-10T04:13:29.386Z,200.97
2023-05-10T04:14:29.323Z,197.43
2023-05-10T04:15:29.336Z,197.47
2023-05-10T04:16:29.351Z,195.48
2023-05-10T04:17:29.322Z,193.39
2023-05-10T04:18:29.339Z,191.32
2023-05-10T04:19:29.320Z,192.46
2023-05-10T04:20:29.314Z,191.89
2023-05-10T04:21:29.327Z,190.65
2023-05-10T04:22:29.291Z,191.38
2023-05-10T04:23:29.324Z,194.68
2023-05-10T04:24:29.296Z,193.02
2023-05-10T04:25:29.283Z,192.94
2023-05-10T04:26:29.350Z,195.28
2023-05-10T04:27:29.359Z,193.33
2023-05-10T04:28:29.363Z,190.38
2023-05-10T04:29:29.369Z,192.72
2023-05-10T04:30:29.363Z,190.13
2023-05-10T04:31:29.459Z,189.84
2023-05-10T04:32:29.434Z,186.65
2023-05-10T04:33:29.440Z,187.66
2023-05-10T04:34:29.396Z,189.70
2023-05-10T04:35:29.493Z,191.92
2023-05-10T04:36:29.402Z,190.64
2023-05-10T04:37:29.417Z,193.20
2023-05-10T04:38:29.429Z,192.33
2023-05-10T04:39:29.385Z,193.58
2023-05-10T04:40:29.388Z,193.94
2023-05-10T04:41:29.385Z,195.75
2023-05-10T04:42:29.387Z,196.13
2023-05-10T04:43:29.385Z,197.00
2023-05-10T04:44:29.421Z,198.21
2023-05-10T04:45:29.417Z,198.23
2023-05-10T04:46:29.417Z,199.98
2023-05-10T04:47:29.485Z,201.01
2023-05-10T04:48:29.400Z,202.54
2023-05-10T04:49:29.398Z,201.79
2023-05-10T04:50:29.442Z,202.97
2023-05-10T04:51:29.456Z,203.59
2023-05-10T04:52:29.423Z,204.55
2023-05-10T04:53:29.421Z,205.72
2023-05-10T04:54:29.438Z,206.53
2023-05-10T04:55:29.388Z,205.07
2023-05-10T04:56:29.422Z,205.67
2023-05-10T04:57:29.412Z,207.16
2023-05-10T04:58:29.387Z,207.92
2023-05-10T04:59:29.429Z,209.79
2023-05-10T05:00:29.406Z,209.55
2023-05-10T05:01:29.424Z,209.01
2023-05-10T05:02:29.471Z,209.16
2023-05-10T05:03:29.493Z,209.44
2023-05-10T05:04:29.432Z,209.17
2023-05-10T05:05:29.408Z,211.14
2023-05-10T05:06:29.410Z,212.47
2023-05-10T05:07:29.413Z,210.21
2023-05-10T05:08:29.430Z,211.51
2023-05-10T05:09:29.432Z,211.24
2023-05-10T05:10:29.437Z,212.64
2023-05-10T05:11:29.400Z,215.08
2023-05-10T05:12:29.405Z,214.14
2023-05-10T05:13:29.529Z,212.42
2023-05-10T05:14:29.428Z,214.58
2023-05-10T05:15:29.391Z,215.53
2023-05-10T05:16:29.387Z,214.93
2023-05-10T05:17:29.388Z,214.78
2023-05-10T05:18:29.391Z,214.25
2023-05-10T05:19:29.392Z,215.26
2023-05-10T05:20:29.366Z,214.79
2023-05-10T05:21:29.365Z,216.59
2023-05-10T05:22:29.453Z,215.27
2023-05-10T05:23:29.399Z,215.83
2023-05-10T05:24:29.355Z,217.76
2023-05-10T05:25:29.389Z,216.30
2023-05-10T05:26:29.381Z,216.36
2023-05-10T05:27:29.393Z,217.67
2023-05-10T05:28:29.397Z,217.32
2023-05-10T05:29:29.415Z,215.75
2023-05-10T05:30:29.393Z,216.64
2023-05-10T05:31:29.354Z,215.57
2023-05-10T05:32:29.415Z,216.90
2023-05-10T05:33:29.352Z,215.14
2023-05-10T05:34:29.403Z,216.76
2023-05-10T05:35:29.402Z,215.08
2023-05-10T05:36:29.372Z,208.71
2023-05-10T05:37:29.415Z,207.01
2023-05-10T05:38:29.428Z,203.43
2023-05-10T05:39:29.392Z,196.81
2023-05-10T05:40:29.379Z,198.03
2023-05-10T05:41:29.378Z,193.24
2023-05-10T05:42:29.402Z,181.17
2023-05-10T05:43:29.390Z,182.57
2023-05-10T05:44:29.401Z,178.76
2023-05-10T05:45:29.559Z,172.95
2023-05-10T05:46:29.474Z,178.66
2023-05-10T05:47:29.516Z,175.20
2023-05-10T05:48:29.503Z,179.61
2023-05-10T05:49:29.828Z,171.02
2023-05-10T05:50:29.757Z,173.93
2023-05-10T05:51:29.526Z,178.10
2023-05-10T05:52:29.520Z,178.95
2023-05-10T05:53:29.526Z,180.59
2023-05-10T05:54:29.577Z,182.25
2023-05-10T05:55:29.582Z,186.08
2023-05-10T05:56:29.587Z,187.65
2023-05-10T05:57:29.598Z,188.84
2023-05-10T05:58:29.613Z,187.70
2023-05-10T05:59:29.600Z,189.17
2023-05-10T06:00:29.578Z,186.83
2023-05-10T06:01:29.717Z,188.46
2023-05-10T06:02:29.708Z,189.70
2023-05-10T06:03:29.711Z,191.05
2023-05-10T06:04:29.829Z,195.35
2023-05-10T06:05:29.615Z,194.26
2023-05-10T06:06:29.796Z,193.16
2023-05-10T06:07:30.246Z,192.59
2023-05-10T06:08:29.640Z,191.31
2023-05-10T06:09:29.770Z,197.62
2023-05-10T06:10:29.652Z,197.62
2023-05-10T06:11:29.792Z,198.17
2023-05-10T06:12:29.605Z,201.42
2023-05-10T06:13:29.665Z,204.21
2023-05-10T06:14:29.567Z,205.72
2023-05-10T06:15:29.574Z,203.76
2023-05-10T06:16:29.640Z,207.42
2023-05-10T06:17:29.662Z,207.76
2023-05-10T06:18:29.547Z,209.65
2023-05-10T06:19:29.610Z,214.74
2023-05-10T06:20:29.619Z,213.20
2023-05-10T06:21:29.614Z,215.17
2023-05-10T06:22:29.671Z,215.39
2023-05-10T06:23:29.715Z,217.84
2023-05-10T06:24:29.756Z,220.73
2023-05-10T06:25:29.850Z,222.19
2023-05-10T06:26:29.810Z,224.50
2023-05-10T06:27:29.890Z,224.27
2023-05-10T06:28:30.291Z,226.52
2023-05-10T06:29:29.981Z,230.14
2023-05-10T06:30:30.439Z,232.15
2023-05-10T06:31:30.132Z,232.37
2023-05-10T06:32:30.171Z,233.01
2023-05-10T06:33:30.225Z,237.50
2023-05-10T06:34:30.271Z,238.21
2023-05-10T06:35:30.277Z,240.11
2023-05-10T06:36:30.387Z,241.81
2023-05-10T06:37:30.443Z,246.11
2023-05-10T06:38:30.771Z,247.88
2023-05-10T06:39:30.569Z,249.70
2023-05-10T06:40:30.654Z,249.72
2023-05-10T06:41:30.680Z,248.75
2023-05-10T06:42:30.686Z,249.40
2023-05-10T06:43:30.811Z,248.77
2023-05-10T06:44:30.765Z,250.00
2023-05-10T06:45:30.835Z,249.47
2023-05-10T06:46:30.918Z,246.01
2023-05-10T06:47:30.933Z,246.88
2023-05-10T06:48:31.299Z,244.68
2023-05-10T06:49:30.973Z,243.83
2023-05-10T06:50:31.261Z,245.40
2023-05-10T06:51:31.026Z,247.09
2023-05-10T06:52:31.074Z,250.00
2023-05-10T06:53:31.166Z,249.60
2023-05-10T06:54:31.205Z,249.61
2023-05-10T06:55:31.241Z,249.60
2023-05-10T06:56:31.239Z,248.18
2023-05-10T06:57:32.200Z,243.06
2023-05-10T06:58:31.292Z,243.23
2023-05-10T06:59:31.420Z,239.70
2023-05-10T07:00:31.390Z,238.62
2023-05-10T07:01:31.406Z,237.59
2023-05-10T07:02:31.478Z,237.03
2023-05-10T07:03:31.771Z,236.94
2023-05-10T07:04:31.855Z,236.25
2023-05-10T07:05:31.803Z,235.00
2023-05-10T07:06:33.762Z,233.52
2023-05-10T07:07:31.672Z,233.32
2023-05-10T07:08:31.726Z,233.55
2023-05-10T07:09:31.727Z,234.96
2023-05-10T07:10:31.797Z,231.78
2023-05-10T07:11:31.818Z,230.74
2023-05-10T07:12:31.838Z,229.48
2023-05-10T07:13:31.901Z,228.83
2023-05-10T07:14:31.877Z,228.91
2023-05-10T07:15:32.290Z,227.27
2023-05-10T07:16:31.967Z,226.78
2023-05-10T07:17:32.105Z,228.21
2023-05-10T07:18:32.065Z,227.95
2023-05-10T07:19:32.272Z,228.25
2023-05-10T07:20:32.064Z,227.15
2023-05-10T07:21:32.143Z,227.24
2023-05-10T07:22:32.246Z,229.32
2023-05-10T07:23:32.090Z,230.81
2023-05-10T07:24:32.166Z,231.49
2023-05-10T07:25:32.140Z,229.71
2023-05-10T07:26:32.152Z,231.86
2023-05-10T07:27:32.167Z,233.73
2023-05-10T07:28:32.228Z,233.91
2023-05-10T07:29:32.201Z,236.22
2023-05-10T07:30:32.271Z,238.76
2023-05-10T07:31:32.273Z,241.00
2023-05-10T07:32:32.378Z,240.99
2023-05-10T07:33:32.279Z,242.91
2023-05-10T07:34:32.318Z,244.79
2023-05-10T07:35:32.782Z,245.14
2023-05-10T07:36:32.308Z,246.59
2023-05-10T07:37:32.826Z,248.58
2023-05-10T07:38:32.395Z,242.08
2023-05-10T07:39:32.849Z,250.00
2023-05-10T07:40:32.361Z,248.92
2023-05-10T07:41:33.923Z,250.00
2023-05-10T07:42:32.413Z,248.45
2023-05-10T07:43:32.325Z,248.94
2023-05-10T07:44:32.349Z,246.69
2023-05-10T07:45:32.361Z,245.31
2023-05-10T07:46:32.350Z,245.78
2023-05-10T07:47:32.335Z,243.00
2023-05-10T07:48:32.288Z,242.16
2023-05-10T07:49:32.304Z,241.84
2023-05-10T07:50:32.293Z,242.41
2023-05-10T07:51:32.392Z,243.42
2023-05-10T07:52:32.247Z,245.75
2023-05-10T07:53:32.306Z,244.97
2023-05-10T07:54:32.310Z,247.28
2023-05-10T07:55:32.322Z,246.10
2023-05-10T07:56:32.258Z,247.28
2023-05-10T07:57:32.255Z,244.72
2023-05-10T07:58:32.217Z,245.28
2023-05-10T07:59:32.245Z,246.90
2023-05-10T08:00:32.258Z,245.51
2023-05-10T08:01:32.253Z,249.09
2023-05-10T08:02:32.318Z,246.92
2023-05-10T08:03:32.362Z,245.40
2023-05-10T08:04:32.291Z,247.00
2023-05-10T08:05:33.117Z,249.38
2023-05-10T08:06:32.227Z,249.49
2023-05-10T08:07:32.254Z,249.89
2023-05-10T08:08:33.036Z,250.49
2023-05-10T08:09:32.422Z,250.28
2023-05-10T08:10:32.445Z,252.60
2023-05-10T08:11:33.719Z,249.45
2023-05-10T08:12:32.822Z,248.30
2023-05-10T08:13:32.775Z,248.95
2023-05-10T08:14:32.688Z,247.57
2023-05-10T08:15:32.750Z,247.42
2023-05-10T08:16:32.926Z,247.33
2023-05-10T08:17:32.907Z,245.85
2023-05-10T08:18:33.316Z,239.44
2023-05-10T08:19:32.992Z,243.84
2023-05-10T08:20:33.060Z,241.39
2023-05-10T08:21:33.141Z,239.41
2023-05-10T08:22:33.112Z,237.10
2023-05-10T08:23:33.185Z,235.10
2023-05-10T08:24:33.223Z,233.92
2023-05-10T08:25:33.269Z,232.75
2023-05-10T08:26:33.310Z,231.91
2023-05-10T08:27:33.357Z,232.51
2023-05-10T08:28:33.417Z,230.13
2023-05-10T08:29:46.249Z,228.02
2023-05-10T08:30:34.385Z,228.06
2023-05-10T08:31:33.458Z,222.96
2023-05-10T08:32:33.464Z,219.08
2023-05-10T08:33:33.399Z,214.61
2023-05-10T08:34:33.809Z,213.88
2023-05-10T08:35:33.405Z,214.55
2023-05-10T08:36:33.362Z,211.04
2023-05-10T08:37:33.352Z,206.01
2023-05-10T08:38:33.361Z,205.34
2023-05-10T08:39:33.833Z,201.71
2023-05-10T08:40:33.332Z,200.00
2023-05-10T08:41:33.347Z,200.32
2023-05-10T08:42:33.296Z,200.20
2023-05-10T08:43:33.334Z,199.92
2023-05-10T08:44:33.365Z,199.84
2023-05-10T08:45:33.315Z,202.66
2023-05-10T08:46:33.318Z,205.66
2023-05-10T08:47:33.362Z,209.03
2023-05-10T08:48:33.280Z,210.38
2023-05-10T08:49:33.340Z,213.33
2023-05-10T08:50:33.299Z,216.25
2023-05-10T08:51:33.311Z,215.31
2023-05-10T08:52:33.314Z,215.65
2023-05-10T08:53:33.310Z,218.54
2023-05-10T08:54:33.346Z,221.06
2023-05-10T08:55:33.380Z,224.99
2023-05-10T08:56:33.446Z,228.16
2023-05-10T08:57:33.873Z,230.19
2023-05-10T08:58:33.515Z,232.14
2023-05-10T08:59:33.605Z,237.69
2023-05-10T09:00:33.771Z,242.59
2023-05-10T09:01:33.725Z,245.19
2023-05-10T09:02:33.819Z,247.42
2023-05-10T09:03:33.862Z,246.15
2023-05-10T09:04:33.995Z,244.56
2023-05-10T09:05:33.969Z,244.04
2023-05-10T09:06:34.032Z,243.94
2023-05-10T09:07:34.822Z,244.83
2023-05-10T09:08:34.143Z,245.18
2023-05-10T09:09:34.203Z,245.68
2023-05-10T09:10:34.267Z,244.70
2023-05-10T09:11:34.302Z,246.12
2023-05-10T09:12:34.373Z,247.24
2023-05-10T09:13:34.401Z,248.98
2023-05-10T09:14:34.488Z,249.08
2023-05-10T09:15:34.556Z,250.00
2023-05-10T09:16:34.657Z,250.00
2023-05-10T09:17:34.695Z,247.99
2023-05-10T09:18:34.837Z,249.90
2023-05-10T09:19:34.758Z,248.44
2023-05-10T09:20:34.851Z,249.36
2023-05-10T09:21:35.327Z,249.32
2023-05-10T09:22:34.964Z,248.87
2023-05-10T09:23:34.996Z,248.55
2023-05-10T09:24:35.089Z,249.34
2023-05-10T09:25:35.121Z,249.29
2023-05-10T09:26:35.316Z,250.00
2023-05-10T09:27:35.247Z,248.96
2023-05-10T09:28:35.316Z,249.02
2023-05-10T09:29:35.358Z,249.43
2023-05-10T09:30:35.405Z,249.14
2023-05-10T09:31:35.423Z,248.40
2023-05-10T09:32:35.488Z,242.26
2023-05-10T09:33:35.538Z,228.85
2023-05-10T09:34:35.614Z,212.67
2023-05-10T09:35:35.615Z,189.52
2023-05-10T09:36:35.620Z,173.49
2023-05-10T09:37:35.676Z,174.73
2023-05-10T09:38:35.817Z,178.48
2023-05-10T09:39:35.683Z,174.93
2023-05-10T09:40:35.705Z,173.26
2023-05-10T09:41:35.714Z,171.89
2023-05-10T09:42:35.718Z,172.45
2023-05-10T09:43:35.817Z,174.67
2023-05-10T09:44:35.753Z,174.39
2023-05-10T09:45:38.138Z,178.99
2023-05-10T09:46:36.004Z,182.61
2023-05-10T09:47:36.089Z,181.10
2023-05-10T09:48:35.977Z,183.16
2023-05-10T09:49:36.030Z,183.58
2023-05-10T09:50:36.016Z,183.99
2023-05-10T09:51:36.886Z,181.55
2023-05-10T09:52:36.011Z,181.12
2023-05-10T09:53:36.139Z,182.09
2023-05-10T09:54:36.882Z,182.48
2023-05-10T09:55:36.198Z,182.58
2023-05-10T09:56:36.255Z,179.84
2023-05-10T09:57:36.335Z,177.01
2023-05-10T09:58:36.440Z,175.26
2023-05-10T09:59:36.488Z,175.86
2023-05-10T10:00:36.549Z,175.72
2023-05-10T10:01:36.583Z,173.59
2023-05-10T10:02:36.846Z,174.12
2023-05-10T10:03:36.665Z,174.33
2023-05-10T10:04:36.766Z,172.24
2023-05-10T10:05:36.811Z,171.50
2023-05-10T10:06:36.876Z,171.54
2023-05-10T10:07:36.931Z,169.81
2023-05-10T10:08:36.958Z,168.76
2023-05-10T10:09:37.021Z,168.31
2023-05-10T10:10:37.120Z,168.87
2023-05-10T10:11:37.141Z,169.50
2023-05-10T10:12:37.201Z,167.39
2023-05-10T10:13:37.273Z,167.38
2023-05-10T10:14:37.307Z,166.72
2023-05-10T10:15:37.915Z,168.67
2023-05-10T10:16:41.427Z,169.78
2023-05-10T10:17:38.472Z,169.90
2023-05-10T10:18:37.917Z,170.00
2023-05-10T10:19:38.388Z,169.08
2023-05-10T10:20:37.415Z,167.61
2023-05-10T10:21:37.353Z,166.43
2023-05-10T10:22:37.861Z,165.24
2023-05-10T10:23:37.349Z,165.04
2023-05-10T10:24:37.376Z,164.32
2023-05-10T10:25:37.397Z,165.72
2023-05-10T10:26:37.861Z,166.80
2023-05-10T10:27:37.472Z,169.83
2023-05-10T10:28:37.503Z,170.37
2023-05-10T10:29:37.513Z,167.22
2023-05-10T10:30:37.589Z,157.28
2023-05-10T10:31:37.810Z,155.08
2023-05-10T10:32:37.653Z,154.33
2023-05-10T10:33:37.674Z,158.62
2023-05-10T10:34:37.744Z,150.46
2023-05-10T10:35:37.858Z,148.52
2023-05-10T10:36:37.818Z,147.64
2023-05-10T10:37:37.885Z,149.01
2023-05-10T10:38:37.869Z,151.40
2023-05-10T10:39:38.043Z,156.39
2023-05-10T10:40:38.402Z,159.52
2023-05-10T10:41:38.391Z,159.84
2023-05-10T10:42:38.377Z,157.96
2023-05-10T10:43:38.041Z,160.62
2023-05-10T10:44:38.333Z,159.76
2023-05-10T10:45:38.493Z,160.59
2023-05-10T10:46:38.162Z,164.39
2023-05-10T10:47:38.206Z,162.08
2023-05-10T10:48:38.142Z,162.23
2023-05-10T10:49:38.138Z,161.05
2023-05-10T10:50:38.212Z,163.77
2023-05-10T10:51:38.196Z,164.43
2023-05-10T10:52:38.218Z,160.26
2023-05-10T10:53:38.227Z,155.45
2023-05-10T10:54:38.262Z,160.76
2023-05-10T10:55:38.291Z,156.73
2023-05-10T10:56:38.361Z,154.01
2023-05-10T10:57:38.300Z,148.87
2023-05-10T10:58:38.317Z,151.35
2023-05-10T10:59:38.322Z,147.98
2023-05-10T11:00:38.451Z,145.74
2023-05-10T11:01:38.539Z,143.06
2023-05-10T11:02:38.432Z,143.19
2023-05-10T11:03:38.428Z,143.09
2023-05-10T11:04:38.497Z,140.09
2023-05-10T11:05:38.475Z,139.02
2023-05-10T11:06:38.454Z,140.26
2023-05-10T11:07:38.492Z,140.99
2023-05-10T11:08:38.869Z,142.14
2023-05-10T11:09:38.499Z,143.31
2023-05-10T11:10:38.530Z,140.20
2023-05-10T11:11:38.889Z,142.29
2023-05-10T11:12:38.918Z,142.17
2023-05-10T11:13:38.531Z,141.36
2023-05-10T11:14:38.535Z,143.18
2023-05-10T11:15:38.894Z,146.72
2023-05-10T11:16:38.733Z,154.93
2023-05-10T11:17:38.578Z,163.15
2023-05-10T11:18:38.600Z,165.65
2023-05-10T11:19:38.564Z,155.26
2023-05-10T11:20:38.584Z,144.05
2023-05-10T11:21:38.578Z,136.89
2023-05-10T11:22:38.601Z,128.18
2023-05-10T11:23:38.618Z,126.28
2023-05-10T11:24:38.643Z,121.53
2023-05-10T11:25:38.659Z,112.64
2023-05-10T11:26:38.736Z,107.23
2023-05-10T11:27:38.746Z,104.27
2023-05-10T11:28:38.778Z,101.47
2023-05-10T11:29:38.798Z,92.61
2023-05-10T11:30:38.880Z,86.44
2023-05-10T11:31:38.875Z,82.06
2023-05-10T11:32:39.002Z,78.68
2023-05-10T11:33:38.984Z,71.12
2023-05-10T11:34:39.045Z,64.97
2023-05-10T11:35:41.030Z,61.81
2023-05-10T11:36:39.088Z,58.59
2023-05-10T11:37:39.077Z,56.55
2023-05-10T11:38:39.046Z,54.61
2023-05-10T11:39:39.085Z,50.92
2023-05-10T11:40:39.037Z,50.27
2023-05-10T11:41:39.658Z,49.18
2023-05-10T11:42:39.076Z,47.87
2023-05-10T11:43:39.037Z,39.70
2023-05-10T11:44:38.993Z,35.84
2023-05-10T11:45:39.019Z,32.85
2023-05-10T11:46:39.091Z,29.91
2023-05-10T11:47:40.800Z,27.35
2023-05-10T11:48:38.989Z,25.00
2023-05-10T11:49:39.002Z,25.30
2023-05-10T11:50:39.001Z,25.68
2023-05-10T11:51:38.970Z,25.06
2023-05-10T11:52:38.955Z,25.00
2023-05-10T11:53:39.002Z,25.57
2023-05-10T11:54:38.966Z,25.07
2023-05-10T11:55:38.914Z,25.34
2023-05-10T11:56:38.940Z,25.83
2023-05-10T11:57:38.900Z,25.05
2023-05-10T11:58:38.923Z,25.00
2023-05-10T11:59:39.865Z,25.46
2023-05-10T12:00:38.918Z,23.90
2023-05-10T12:01:38.870Z,24.30
2023-05-10T12:02:38.978Z,25.52
2023-05-10T12:03:39.658Z,27.03
2023-05-10T12:04:38.908Z,30.99
2023-05-10T12:05:40.566Z,38.82
2023-05-10T12:06:39.158Z,49.58
2023-05-10T12:07:39.106Z,79.42
2023-05-10T12:08:39.129Z,88.74
2023-05-10T12:09:43.815Z,94.01
2023-05-10T12:10:40.208Z,94.44
2023-05-10T12:11:40.546Z,97.34
2023-05-10T12:12:39.116Z,95.00
2023-05-10T12:13:39.135Z,99.21
2023-05-10T12:14:39.149Z,107.89
2023-05-10T12:15:39.154Z,121.81
2023-05-10T12:16:39.143Z,140.56
2023-05-10T12:17:40.238Z,146.39
2023-05-10T12:18:39.124Z,150.64
2023-05-10T12:19:39.055Z,154.45
2023-05-10T12:20:39.087Z,157.64
2023-05-10T12:21:39.098Z,162.72
2023-05-10T12:22:39.060Z,166.65
2023-05-10T12:23:39.110Z,169.28
2023-05-10T12:24:39.224Z,172.42
2023-05-10T12:25:39.232Z,172.66
2023-05-10T12:26:39.397Z,174.03
2023-05-10T12:27:39.355Z,182.27
2023-05-10T12:28:39.438Z,184.37
2023-05-10T12:29:41.059Z,187.51